Estación Meteorológica Peña el Pijo (Robertgarden) [ 02/03/23 03:34:46 CET ]

Fecha Hora Presion(HPa) Temp (°C) Humedad % Rocio (°C) Viento ( m/s) Direccion Lluvia 1Hora(mm) Lluvia 24H(mm) LLuvia Total(mm)
2012-Oct-02 01:01:14 1016.200 8.6 79 5.2         178.19
2012-Oct-02 02:01:16 1016.000 7.9 82 5.0         178.19
2012-Oct-02 03:03:11 1015.700 7.7 84 5.2         178.19
2012-Oct-02 04:01:17 1015.600 6.9 85 4.5         178.19
2012-Oct-02 05:01:13 1015.200 6.8 86 4.6         178.19
2012-Oct-02 06:01:11 1015.200 6.5 87 4.5         178.19
2012-Oct-02 07:01:19 1015.000 5.9 89 4.2         178.19
2012-Oct-02 08:01:14 1015.300 6.1 89 4.4         178.19
2012-Oct-02 09:01:12 1015.500 5.9 90 4.4         178.19
2012-Oct-02 10:01:14 1015.700 12.3 85 9.8         178.19
2012-Oct-02 11:01:13 1015.900 18.2 60 10.3         178.19
2012-Oct-02 12:01:13 1015.700 20.9 47 9.1         178.19
2012-Oct-02 13:01:13 1015.300 23.0 42 9.4         178.19
2012-Oct-02 14:01:14 1014.700 25.3 35 8.7         178.19
2012-Oct-02 15:01:16 1014.500 26.1 30 7.2         178.19
2012-Oct-02 16:01:15 1013.900 26.2 30 7.3         178.19
2012-Oct-02 17:01:17 1013.700 26.5 30 7.5         178.19
2012-Oct-02 18:01:11 1014.000 25.0 32 7.1         178.19
2012-Oct-02 19:01:16 1014.100 20.9 45 8.5         178.19
2012-Oct-02 20:01:13 1014.600 18.3 55 9.1         178.19
2012-Oct-02 21:01:12 1014.900 15.0 65 8.4         178.19
2012-Oct-02 22:01:13 1015.500 12.6 73 7.9         178.19
2012-Oct-02 23:01:14 1015.600 11.3 79 7.8         178.19

Temperatura Máxima:26°    Temperatura Mínima:
Presión Máxima:1016.200 Hpa    Presión Mínima:1013.700 Hpa


Volver